sensor_id;sensor_type;location;lat;lon;timestamp;P1;durP1;ratioP1;P2;durP2;ratioP2
20758;SDS011;10539;53.686;9.158;2023-03-02T00:04:16;140.70;;;14.13;;
20758;SDS011;10539;53.686;9.158;2023-03-02T00:06:45;197.53;;;15.33;;
20758;SDS011;10539;53.686;9.158;2023-03-02T00:09:13;278.20;;;21.40;;
20758;SDS011;10539;53.686;9.158;2023-03-02T00:11:39;238.03;;;18.73;;
20758;SDS011;10539;53.686;9.158;2023-03-02T00:14:06;249.03;;;21.33;;
20758;SDS011;10539;53.686;9.158;2023-03-02T00:16:32;206.20;;;15.23;;
20758;SDS011;10539;53.686;9.158;2023-03-02T00:18:58;325.73;;;23.03;;
20758;SDS011;10539;53.686;9.158;2023-03-02T00:21:24;246.30;;;17.13;;
20758;SDS011;10539;53.686;9.158;2023-03-02T00:23:50;256.60;;;17.93;;
20758;SDS011;10539;53.686;9.158;2023-03-02T00:26:16;50.57;;;7.50;;
20758;SDS011;10539;53.686;9.158;2023-03-02T00:28:42;57.07;;;7.60;;
20758;SDS011;10539;53.686;9.158;2023-03-02T00:31:09;114.30;;;11.80;;
20758;SDS011;10539;53.686;9.158;2023-03-02T00:33:34;208.53;;;17.93;;
20758;SDS011;10539;53.686;9.158;2023-03-02T00:36:00;281.00;;;22.20;;
20758;SDS011;10539;53.686;9.158;2023-03-02T00:38:26;310.13;;;23.00;;
20758;SDS011;10539;53.686;9.158;2023-03-02T00:40:53;284.83;;;18.73;;
20758;SDS011;10539;53.686;9.158;2023-03-02T00:43:19;150.80;;;12.17;;
20758;SDS011;10539;53.686;9.158;2023-03-02T00:45:47;129.57;;;12.53;;
20758;SDS011;10539;53.686;9.158;2023-03-02T00:48:13;188.60;;;16.80;;
20758;SDS011;10539;53.686;9.158;2023-03-02T00:50:38;152.43;;;18.00;;
20758;SDS011;10539;53.686;9.158;2023-03-02T00:53:08;129.47;;;12.87;;
20758;SDS011;10539;53.686;9.158;2023-03-02T00:55:35;253.43;;;19.97;;
20758;SDS011;10539;53.686;9.158;2023-03-02T00:58:02;168.03;;;17.53;;
20758;SDS011;10539;53.686;9.158;2023-03-02T01:00:28;285.27;;;19.73;;
20758;SDS011;10539;53.686;9.158;2023-03-02T01:02:55;112.23;;;11.57;;
20758;SDS011;10539;53.686;9.158;2023-03-02T01:05:21;165.67;;;14.03;;
20758;SDS011;10539;53.686;9.158;2023-03-02T01:07:47;192.47;;;13.97;;
20758;SDS011;10539;53.686;9.158;2023-03-02T01:10:14;136.80;;;11.07;;
20758;SDS011;10539;53.686;9.158;2023-03-02T01:12:40;156.30;;;14.10;;
20758;SDS011;10539;53.686;9.158;2023-03-02T01:15:06;190.80;;;16.50;;
20758;SDS011;10539;53.686;9.158;2023-03-02T01:17:33;204.63;;;17.60;;
20758;SDS011;10539;53.686;9.158;2023-03-02T01:19:59;150.60;;;13.37;;
20758;SDS011;10539;53.686;9.158;2023-03-02T01:22:25;194.97;;;15.80;;
20758;SDS011;10539;53.686;9.158;2023-03-02T01:24:51;280.97;;;20.20;;
20758;SDS011;10539;53.686;9.158;2023-03-02T01:27:17;275.20;;;19.63;;
20758;SDS011;10539;53.686;9.158;2023-03-02T01:29:43;317.43;;;20.70;;
20758;SDS011;10539;53.686;9.158;2023-03-02T01:32:09;188.50;;;14.20;;
20758;SDS011;10539;53.686;9.158;2023-03-02T01:34:35;213.77;;;16.90;;
20758;SDS011;10539;53.686;9.158;2023-03-02T01:37:01;334.70;;;23.43;;
20758;SDS011;10539;53.686;9.158;2023-03-02T01:39:27;329.57;;;20.57;;
20758;SDS011;10539;53.686;9.158;2023-03-02T01:41:53;274.37;;;20.83;;
20758;SDS011;10539;53.686;9.158;2023-03-02T01:47:08;219.80;;;16.60;;
20758;SDS011;10539;53.686;9.158;2023-03-02T01:49:58;200.47;;;15.30;;
20758;SDS011;10539;53.686;9.158;2023-03-02T01:52:27;138.80;;;13.77;;
20758;SDS011;10539;53.686;9.158;2023-03-02T01:54:56;203.47;;;14.37;;
20758;SDS011;10539;53.686;9.158;2023-03-02T01:57:28;215.73;;;16.10;;
20758;SDS011;10539;53.686;9.158;2023-03-02T01:59:58;227.43;;;17.23;;
20758;SDS011;10539;53.686;9.158;2023-03-02T02:02:45;238.60;;;17.97;;
20758;SDS011;10539;53.686;9.158;2023-03-02T02:05:17;135.53;;;11.37;;
20758;SDS011;10539;53.686;9.158;2023-03-02T02:07:45;199.77;;;14.40;;
20758;SDS011;10539;53.686;9.158;2023-03-02T02:10:11;237.83;;;17.87;;
20758;SDS011;10539;53.686;9.158;2023-03-02T02:12:37;233.50;;;18.17;;
20758;SDS011;10539;53.686;9.158;2023-03-02T02:15:03;189.47;;;14.80;;
20758;SDS011;10539;53.686;9.158;2023-03-02T02:17:30;203.57;;;15.90;;
20758;SDS011;10539;53.686;9.158;2023-03-02T02:20:05;119.70;;;11.97;;
20758;SDS011;10539;53.686;9.158;2023-03-02T02:23:12;275.93;;;18.57;;
20758;SDS011;10539;53.686;9.158;2023-03-02T02:28:36;267.47;;;19.23;;
20758;SDS011;10539;53.686;9.158;2023-03-02T02:31:14;237.53;;;18.00;;
20758;SDS011;10539;53.686;9.158;2023-03-02T02:33:44;196.50;;;17.70;;
20758;SDS011;10539;53.686;9.158;2023-03-02T02:36:15;289.80;;;19.43;;
20758;SDS011;10539;53.686;9.158;2023-03-02T02:38:45;329.67;;;20.57;;
20758;SDS011;10539;53.686;9.158;2023-03-02T02:41:17;283.23;;;18.53;;
20758;SDS011;10539;53.686;9.158;2023-03-02T02:43:48;223.93;;;15.13;;
20758;SDS011;10539;53.686;9.158;2023-03-02T02:46:14;297.17;;;19.43;;
20758;SDS011;10539;53.686;9.158;2023-03-02T02:48:40;406.90;;;23.03;;
20758;SDS011;10539;53.686;9.158;2023-03-02T02:51:07;318.10;;;21.93;;
20758;SDS011;10539;53.686;9.158;2023-03-02T02:53:47;208.47;;;15.23;;
20758;SDS011;10539;53.686;9.158;2023-03-02T02:56:23;241.37;;;15.93;;
20758;SDS011;10539;53.686;9.158;2023-03-02T02:58:54;238.63;;;17.53;;
20758;SDS011;10539;53.686;9.158;2023-03-02T03:01:23;118.10;;;12.13;;
20758;SDS011;10539;53.686;9.158;2023-03-02T03:03:51;153.07;;;12.80;;
20758;SDS011;10539;53.686;9.158;2023-03-02T03:06:22;101.23;;;9.60;;
20758;SDS011;10539;53.686;9.158;2023-03-02T03:08:52;90.10;;;10.37;;
20758;SDS011;10539;53.686;9.158;2023-03-02T03:11:21;57.17;;;7.97;;
20758;SDS011;10539;53.686;9.158;2023-03-02T03:16:26;186.37;;;16.07;;
20758;SDS011;10539;53.686;9.158;2023-03-02T03:18:53;302.87;;;23.13;;
20758;SDS011;10539;53.686;9.158;2023-03-02T03:21:21;362.27;;;23.17;;
20758;SDS011;10539;53.686;9.158;2023-03-02T03:23:47;320.17;;;22.50;;
20758;SDS011;10539;53.686;9.158;2023-03-02T03:26:14;145.30;;;13.90;;
20758;SDS011;10539;53.686;9.158;2023-03-02T03:28:40;285.17;;;22.13;;
20758;SDS011;10539;53.686;9.158;2023-03-02T03:31:06;315.83;;;20.90;;
20758;SDS011;10539;53.686;9.158;2023-03-02T03:33:32;192.30;;;15.43;;
20758;SDS011;10539;53.686;9.158;2023-03-02T03:35:57;224.47;;;17.17;;
20758;SDS011;10539;53.686;9.158;2023-03-02T03:38:25;268.77;;;18.80;;
20758;SDS011;10539;53.686;9.158;2023-03-02T03:40:51;189.70;;;17.83;;
20758;SDS011;10539;53.686;9.158;2023-03-02T03:43:16;257.97;;;17.10;;
20758;SDS011;10539;53.686;9.158;2023-03-02T03:45:42;287.60;;;19.93;;
20758;SDS011;10539;53.686;9.158;2023-03-02T03:48:08;200.40;;;15.53;;
20758;SDS011;10539;53.686;9.158;2023-03-02T03:50:34;304.20;;;19.97;;
20758;SDS011;10539;53.686;9.158;2023-03-02T03:53:00;179.70;;;14.20;;
20758;SDS011;10539;53.686;9.158;2023-03-02T03:55:26;124.20;;;12.70;;
20758;SDS011;10539;53.686;9.158;2023-03-02T03:57:53;111.17;;;11.53;;
20758;SDS011;10539;53.686;9.158;2023-03-02T04:00:20;163.63;;;12.60;;
20758;SDS011;10539;53.686;9.158;2023-03-02T04:02:47;176.33;;;13.63;;
20758;SDS011;10539;53.686;9.158;2023-03-02T04:05:12;90.87;;;8.23;;
20758;SDS011;10539;53.686;9.158;2023-03-02T04:07:38;122.63;;;10.20;;
20758;SDS011;10539;53.686;9.158;2023-03-02T04:10:05;154.93;;;15.20;;
20758;SDS011;10539;53.686;9.158;2023-03-02T04:12:36;241.33;;;16.20;;
20758;SDS011;10539;53.686;9.158;2023-03-02T04:15:04;144.67;;;14.37;;
20758;SDS011;10539;53.686;9.158;2023-03-02T04:17:31;168.23;;;14.47;;
20758;SDS011;10539;53.686;9.158;2023-03-02T04:19:57;199.67;;;15.20;;
20758;SDS011;10539;53.686;9.158;2023-03-02T04:22:24;152.43;;;14.33;;
20758;SDS011;10539;53.686;9.158;2023-03-02T04:24:50;216.17;;;16.93;;
20758;SDS011;10539;53.686;9.158;2023-03-02T04:27:16;269.83;;;19.53;;
20758;SDS011;10539;53.686;9.158;2023-03-02T04:29:42;238.17;;;15.90;;
20758;SDS011;10539;53.686;9.158;2023-03-02T04:32:09;139.07;;;14.47;;
20758;SDS011;10539;53.686;9.158;2023-03-02T04:34:36;164.03;;;13.57;;
20758;SDS011;10539;53.686;9.158;2023-03-02T04:37:02;180.80;;;15.20;;
20758;SDS011;10539;53.686;9.158;2023-03-02T04:39:28;246.50;;;15.63;;
20758;SDS011;10539;53.686;9.158;2023-03-02T04:41:54;172.20;;;14.17;;
20758;SDS011;10539;53.686;9.158;2023-03-02T04:44:20;129.97;;;13.47;;
20758;SDS011;10539;53.686;9.158;2023-03-02T04:46:47;100.27;;;10.27;;
20758;SDS011;10539;53.686;9.158;2023-03-02T04:49:13;203.67;;;17.07;;
20758;SDS011;10539;53.686;9.158;2023-03-02T04:51:41;208.03;;;17.90;;
20758;SDS011;10539;53.686;9.158;2023-03-02T04:54:19;157.17;;;15.10;;
20758;SDS011;10539;53.686;9.158;2023-03-02T04:56:49;261.43;;;19.43;;
20758;SDS011;10539;53.686;9.158;2023-03-02T04:59:16;256.87;;;20.63;;
20758;SDS011;10539;53.686;9.158;2023-03-02T05:01:44;240.30;;;19.10;;
20758;SDS011;10539;53.686;9.158;2023-03-02T05:04:11;205.87;;;19.27;;
20758;SDS011;10539;53.686;9.158;2023-03-02T05:06:37;236.40;;;17.97;;
20758;SDS011;10539;53.686;9.158;2023-03-02T05:09:02;173.50;;;17.53;;
20758;SDS011;10539;53.686;9.158;2023-03-02T05:11:29;135.30;;;14.83;;
20758;SDS011;10539;53.686;9.158;2023-03-02T05:13:58;178.23;;;15.53;;
20758;SDS011;10539;53.686;9.158;2023-03-02T05:16:27;163.27;;;16.83;;
20758;SDS011;10539;53.686;9.158;2023-03-02T05:18:56;211.23;;;18.63;;
20758;SDS011;10539;53.686;9.158;2023-03-02T05:21:22;183.20;;;15.73;;
20758;SDS011;10539;53.686;9.158;2023-03-02T05:23:48;101.13;;;13.30;;
20758;SDS011;10539;53.686;9.158;2023-03-02T05:26:14;140.67;;;13.13;;
20758;SDS011;10539;53.686;9.158;2023-03-02T05:28:41;208.03;;;16.83;;
20758;SDS011;10539;53.686;9.158;2023-03-02T05:31:07;229.60;;;18.57;;
20758;SDS011;10539;53.686;9.158;2023-03-02T05:33:34;266.97;;;19.70;;
20758;SDS011;10539;53.686;9.158;2023-03-02T05:36:00;358.97;;;22.90;;
20758;SDS011;10539;53.686;9.158;2023-03-02T05:38:26;232.90;;;16.20;;
20758;SDS011;10539;53.686;9.158;2023-03-02T05:40:52;249.07;;;19.80;;
20758;SDS011;10539;53.686;9.158;2023-03-02T05:43:19;361.40;;;22.63;;
20758;SDS011;10539;53.686;9.158;2023-03-02T05:45:45;196.63;;;18.90;;
20758;SDS011;10539;53.686;9.158;2023-03-02T05:48:12;153.53;;;13.80;;
20758;SDS011;10539;53.686;9.158;2023-03-02T05:50:38;262.90;;;18.33;;
20758;SDS011;10539;53.686;9.158;2023-03-02T05:53:04;158.60;;;16.30;;
20758;SDS011;10539;53.686;9.158;2023-03-02T05:55:30;204.03;;;17.47;;
20758;SDS011;10539;53.686;9.158;2023-03-02T05:58:01;134.33;;;11.77;;
20758;SDS011;10539;53.686;9.158;2023-03-02T06:00:30;287.77;;;19.07;;
20758;SDS011;10539;53.686;9.158;2023-03-02T06:02:56;94.60;;;10.83;;
20758;SDS011;10539;53.686;9.158;2023-03-02T06:05:22;207.83;;;16.10;;
20758;SDS011;10539;53.686;9.158;2023-03-02T06:07:48;304.87;;;20.67;;
20758;SDS011;10539;53.686;9.158;2023-03-02T06:10:14;281.37;;;19.90;;
20758;SDS011;10539;53.686;9.158;2023-03-02T06:12:41;249.83;;;20.30;;
20758;SDS011;10539;53.686;9.158;2023-03-02T06:15:07;249.70;;;20.17;;
20758;SDS011;10539;53.686;9.158;2023-03-02T06:17:34;388.40;;;23.37;;
20758;SDS011;10539;53.686;9.158;2023-03-02T06:20:00;386.30;;;23.83;;
20758;SDS011;10539;53.686;9.158;2023-03-02T06:22:26;233.30;;;17.60;;
20758;SDS011;10539;53.686;9.158;2023-03-02T06:24:52;202.43;;;20.07;;
20758;SDS011;10539;53.686;9.158;2023-03-02T06:27:20;350.13;;;22.93;;
20758;SDS011;10539;53.686;9.158;2023-03-02T06:29:46;223.37;;;18.20;;
20758;SDS011;10539;53.686;9.158;2023-03-02T06:32:12;234.40;;;17.73;;
20758;SDS011;10539;53.686;9.158;2023-03-02T06:34:38;261.03;;;18.43;;
20758;SDS011;10539;53.686;9.158;2023-03-02T06:37:03;390.73;;;26.47;;
20758;SDS011;10539;53.686;9.158;2023-03-02T06:39:29;308.47;;;21.70;;
20758;SDS011;10539;53.686;9.158;2023-03-02T06:41:55;322.87;;;20.17;;
20758;SDS011;10539;53.686;9.158;2023-03-02T06:44:21;301.93;;;20.63;;
20758;SDS011;10539;53.686;9.158;2023-03-02T06:46:47;223.50;;;17.07;;
20758;SDS011;10539;53.686;9.158;2023-03-02T06:49:12;273.27;;;20.90;;
20758;SDS011;10539;53.686;9.158;2023-03-02T06:51:38;237.00;;;17.97;;
20758;SDS011;10539;53.686;9.158;2023-03-02T06:54:04;269.67;;;21.33;;
20758;SDS011;10539;53.686;9.158;2023-03-02T06:56:33;250.80;;;17.93;;
20758;SDS011;10539;53.686;9.158;2023-03-02T06:58:59;286.13;;;19.57;;
20758;SDS011;10539;53.686;9.158;2023-03-02T07:01:25;180.70;;;14.63;;
20758;SDS011;10539;53.686;9.158;2023-03-02T07:03:51;279.17;;;20.73;;
20758;SDS011;10539;53.686;9.158;2023-03-02T07:06:16;218.80;;;16.53;;
20758;SDS011;10539;53.686;9.158;2023-03-02T07:08:42;233.47;;;16.03;;
20758;SDS011;10539;53.686;9.158;2023-03-02T07:11:09;227.47;;;15.57;;
20758;SDS011;10539;53.686;9.158;2023-03-02T07:13:38;220.47;;;16.43;;
20758;SDS011;10539;53.686;9.158;2023-03-02T07:16:13;198.60;;;15.43;;
20758;SDS011;10539;53.686;9.158;2023-03-02T07:18:40;207.97;;;16.70;;
20758;SDS011;10539;53.686;9.158;2023-03-02T07:21:06;259.23;;;17.60;;
20758;SDS011;10539;53.686;9.158;2023-03-02T07:23:32;168.97;;;13.50;;
20758;SDS011;10539;53.686;9.158;2023-03-02T07:25:58;247.73;;;17.23;;
20758;SDS011;10539;53.686;9.158;2023-03-02T07:28:24;165.30;;;14.10;;
20758;SDS011;10539;53.686;9.158;2023-03-02T07:30:50;223.07;;;13.27;;
20758;SDS011;10539;53.686;9.158;2023-03-02T07:33:17;180.50;;;13.83;;
20758;SDS011;10539;53.686;9.158;2023-03-02T07:35:46;178.43;;;14.53;;
20758;SDS011;10539;53.686;9.158;2023-03-02T07:38:12;209.50;;;15.53;;
20758;SDS011;10539;53.686;9.158;2023-03-02T07:40:39;209.50;;;15.73;;
20758;SDS011;10539;53.686;9.158;2023-03-02T07:43:05;301.83;;;18.97;;
20758;SDS011;10539;53.686;9.158;2023-03-02T07:45:31;181.27;;;12.87;;
20758;SDS011;10539;53.686;9.158;2023-03-02T07:47:57;283.67;;;18.57;;
20758;SDS011;10539;53.686;9.158;2023-03-02T07:50:23;140.00;;;13.97;;
20758;SDS011;10539;53.686;9.158;2023-03-02T07:52:49;222.20;;;14.13;;
20758;SDS011;10539;53.686;9.158;2023-03-02T07:55:14;221.57;;;15.90;;
20758;SDS011;10539;53.686;9.158;2023-03-02T07:57:40;232.50;;;16.67;;
20758;SDS011;10539;53.686;9.158;2023-03-02T08:00:06;230.50;;;15.10;;
20758;SDS011;10539;53.686;9.158;2023-03-02T08:02:32;165.00;;;13.63;;
20758;SDS011;10539;53.686;9.158;2023-03-02T08:04:58;211.83;;;16.07;;
20758;SDS011;10539;53.686;9.158;2023-03-02T08:07:24;186.23;;;15.33;;
20758;SDS011;10539;53.686;9.158;2023-03-02T08:09:50;177.47;;;15.27;;
20758;SDS011;10539;53.686;9.158;2023-03-02T08:12:16;184.77;;;16.43;;
20758;SDS011;10539;53.686;9.158;2023-03-02T08:14:41;261.80;;;18.70;;
20758;SDS011;10539;53.686;9.158;2023-03-02T08:17:07;229.23;;;16.23;;
20758;SDS011;10539;53.686;9.158;2023-03-02T08:19:33;323.67;;;21.93;;
20758;SDS011;10539;53.686;9.158;2023-03-02T08:21:59;295.67;;;18.87;;
20758;SDS011;10539;53.686;9.158;2023-03-02T08:24:25;248.67;;;17.77;;
20758;SDS011;10539;53.686;9.158;2023-03-02T08:26:51;246.80;;;17.00;;
20758;SDS011;10539;53.686;9.158;2023-03-02T08:29:17;239.30;;;16.83;;
20758;SDS011;10539;53.686;9.158;2023-03-02T08:31:43;311.67;;;21.10;;
20758;SDS011;10539;53.686;9.158;2023-03-02T08:34:10;277.90;;;20.00;;
20758;SDS011;10539;53.686;9.158;2023-03-02T08:36:37;305.83;;;18.80;;
20758;SDS011;10539;53.686;9.158;2023-03-02T08:39:03;255.27;;;18.60;;
20758;SDS011;10539;53.686;9.158;2023-03-02T08:41:29;241.10;;;17.27;;
20758;SDS011;10539;53.686;9.158;2023-03-02T08:43:55;212.67;;;16.53;;
20758;SDS011;10539;53.686;9.158;2023-03-02T08:46:20;203.43;;;16.37;;
20758;SDS011;10539;53.686;9.158;2023-03-02T08:48:47;288.43;;;19.90;;
20758;SDS011;10539;53.686;9.158;2023-03-02T08:51:20;138.77;;;15.70;;
20758;SDS011;10539;53.686;9.158;2023-03-02T08:53:48;321.30;;;19.50;;
20758;SDS011;10539;53.686;9.158;2023-03-02T08:56:22;260.27;;;18.80;;
20758;SDS011;10539;53.686;9.158;2023-03-02T08:58:51;268.63;;;18.93;;
20758;SDS011;10539;53.686;9.158;2023-03-02T09:01:36;293.83;;;20.50;;
20758;SDS011;10539;53.686;9.158;2023-03-02T09:04:04;296.30;;;21.40;;
20758;SDS011;10539;53.686;9.158;2023-03-02T09:06:35;154.90;;;14.73;;
20758;SDS011;10539;53.686;9.158;2023-03-02T09:09:03;243.77;;;16.70;;
20758;SDS011;10539;53.686;9.158;2023-03-02T09:11:30;371.60;;;22.87;;
20758;SDS011;10539;53.686;9.158;2023-03-02T09:13:56;270.00;;;17.30;;
20758;SDS011;10539;53.686;9.158;2023-03-02T09:16:22;214.97;;;17.83;;
20758;SDS011;10539;53.686;9.158;2023-03-02T09:18:50;429.17;;;24.73;;
20758;SDS011;10539;53.686;9.158;2023-03-02T09:21:16;339.30;;;22.90;;
20758;SDS011;10539;53.686;9.158;2023-03-02T09:23:42;116.23;;;14.60;;
20758;SDS011;10539;53.686;9.158;2023-03-02T09:26:08;87.60;;;12.73;;
20758;SDS011;10539;53.686;9.158;2023-03-02T09:28:34;203.23;;;16.63;;
20758;SDS011;10539;53.686;9.158;2023-03-02T09:31:01;269.13;;;20.67;;
20758;SDS011;10539;53.686;9.158;2023-03-02T09:33:29;86.27;;;12.53;;
20758;SDS011;10539;53.686;9.158;2023-03-02T09:35:55;278.40;;;19.97;;
20758;SDS011;10539;53.686;9.158;2023-03-02T09:38:21;138.47;;;13.43;;
20758;SDS011;10539;53.686;9.158;2023-03-02T09:43:28;132.07;;;11.70;;
20758;SDS011;10539;53.686;9.158;2023-03-02T09:49:06;87.80;;;12.67;;
20758;SDS011;10539;53.686;9.158;2023-03-02T09:54:36;75.80;;;10.57;;
20758;SDS011;10539;53.686;9.158;2023-03-02T09:57:15;167.60;;;14.93;;
20758;SDS011;10539;53.686;9.158;2023-03-02T09:59:47;117.77;;;14.10;;
20758;SDS011;10539;53.686;9.158;2023-03-02T10:02:34;106.57;;;14.13;;
20758;SDS011;10539;53.686;9.158;2023-03-02T10:05:05;94.53;;;14.87;;
20758;SDS011;10539;53.686;9.158;2023-03-02T10:07:37;196.30;;;17.87;;
20758;SDS011;10539;53.686;9.158;2023-03-02T10:10:23;247.37;;;18.90;;
20758;SDS011;10539;53.686;9.158;2023-03-02T10:21:13;65.57;;;11.27;;
20758;SDS011;10539;53.686;9.158;2023-03-02T10:24:00;107.50;;;15.23;;
20758;SDS011;10539;53.686;9.158;2023-03-02T10:26:41;105.13;;;13.30;;
20758;SDS011;10539;53.686;9.158;2023-03-02T10:31:49;109.13;;;12.10;;
20758;SDS011;10539;53.686;9.158;2023-03-02T10:34:24;81.23;;;10.03;;
20758;SDS011;10539;53.686;9.158;2023-03-02T10:36:53;93.97;;;13.33;;
20758;SDS011;10539;53.686;9.158;2023-03-02T10:39:19;67.97;;;11.00;;
20758;SDS011;10539;53.686;9.158;2023-03-02T10:42:06;99.13;;;14.40;;
20758;SDS011;10539;53.686;9.158;2023-03-02T10:44:35;85.27;;;13.10;;
20758;SDS011;10539;53.686;9.158;2023-03-02T10:47:06;92.07;;;13.93;;
20758;SDS011;10539;53.686;9.158;2023-03-02T10:49:42;204.00;;;18.30;;
20758;SDS011;10539;53.686;9.158;2023-03-02T10:52:15;110.80;;;14.67;;
20758;SDS011;10539;53.686;9.158;2023-03-02T10:55:01;99.57;;;12.20;;
20758;SDS011;10539;53.686;9.158;2023-03-02T10:57:44;154.70;;;14.37;;
20758;SDS011;10539;53.686;9.158;2023-03-02T11:00:21;115.63;;;14.17;;
20758;SDS011;10539;53.686;9.158;2023-03-02T11:03:03;98.17;;;13.80;;
20758;SDS011;10539;53.686;9.158;2023-03-02T11:05:44;82.37;;;12.73;;
20758;SDS011;10539;53.686;9.158;2023-03-02T11:08:15;108.17;;;14.77;;
20758;SDS011;10539;53.686;9.158;2023-03-02T11:11:01;66.30;;;14.93;;
20758;SDS011;10539;53.686;9.158;2023-03-02T11:15:59;65.20;;;14.67;;
20758;SDS011;10539;53.686;9.158;2023-03-02T11:18:40;68.20;;;12.90;;
20758;SDS011;10539;53.686;9.158;2023-03-02T11:21:09;90.20;;;14.60;;
20758;SDS011;10539;53.686;9.158;2023-03-02T11:23:41;131.40;;;16.57;;
20758;SDS011;10539;53.686;9.158;2023-03-02T11:26:13;73.97;;;14.43;;
20758;SDS011;10539;53.686;9.158;2023-03-02T11:29:11;61.30;;;14.47;;
20758;SDS011;10539;53.686;9.158;2023-03-02T11:35:02;77.43;;;15.60;;
20758;SDS011;10539;53.686;9.158;2023-03-02T11:37:41;73.50;;;16.83;;
20758;SDS011;10539;53.686;9.158;2023-03-02T11:42:45;72.57;;;12.83;;
20758;SDS011;10539;53.686;9.158;2023-03-02T11:47:46;53.77;;;10.53;;
20758;SDS011;10539;53.686;9.158;2023-03-02T11:50:16;48.40;;;10.77;;
20758;SDS011;10539;53.686;9.158;2023-03-02T11:52:45;56.50;;;12.73;;
20758;SDS011;10539;53.686;9.158;2023-03-02T11:55:19;58.17;;;12.87;;
20758;SDS011;10539;53.686;9.158;2023-03-02T11:57:48;51.57;;;12.07;;
20758;SDS011;10539;53.686;9.158;2023-03-02T12:05:39;33.27;;;9.90;;
20758;SDS011;10539;53.686;9.158;2023-03-02T12:10:58;40.53;;;11.53;;
20758;SDS011;10539;53.686;9.158;2023-03-02T12:13:28;26.80;;;7.33;;
20758;SDS011;10539;53.686;9.158;2023-03-02T12:15:56;41.07;;;8.20;;
20758;SDS011;10539;53.686;9.158;2023-03-02T12:23:29;35.63;;;8.70;;
20758;SDS011;10539;53.686;9.158;2023-03-02T12:26:02;44.17;;;10.50;;
20758;SDS011;10539;53.686;9.158;2023-03-02T12:28:59;45.77;;;10.73;;
20758;SDS011;10539;53.686;9.158;2023-03-02T12:34:37;38.57;;;9.83;;
20758;SDS011;10539;53.686;9.158;2023-03-02T12:37:14;44.00;;;9.83;;
20758;SDS011;10539;53.686;9.158;2023-03-02T12:45:26;43.47;;;10.97;;
20758;SDS011;10539;53.686;9.158;2023-03-02T12:47:59;40.47;;;10.13;;
20758;SDS011;10539;53.686;9.158;2023-03-02T12:50:28;39.47;;;9.43;;
20758;SDS011;10539;53.686;9.158;2023-03-02T12:52:58;37.73;;;10.10;;
20758;SDS011;10539;53.686;9.158;2023-03-02T12:55:29;17.80;;;4.90;;
20758;SDS011;10539;53.686;9.158;2023-03-02T12:57:57;30.73;;;8.20;;
20758;SDS011;10539;53.686;9.158;2023-03-02T13:00:28;28.37;;;7.73;;
20758;SDS011;10539;53.686;9.158;2023-03-02T13:02:56;33.60;;;9.23;;
20758;SDS011;10539;53.686;9.158;2023-03-02T13:05:24;30.73;;;8.00;;
20758;SDS011;10539;53.686;9.158;2023-03-02T13:10:36;30.10;;;7.93;;
20758;SDS011;10539;53.686;9.158;2023-03-02T13:15:52;31.90;;;9.53;;
20758;SDS011;10539;53.686;9.158;2023-03-02T13:18:22;31.83;;;8.53;;
20758;SDS011;10539;53.686;9.158;2023-03-02T13:20:56;25.13;;;8.00;;
20758;SDS011;10539;53.686;9.158;2023-03-02T13:23:23;28.80;;;8.47;;
20758;SDS011;10539;53.686;9.158;2023-03-02T13:25:52;25.60;;;7.80;;
20758;SDS011;10539;53.686;9.158;2023-03-02T13:28:27;23.60;;;8.37;;
20758;SDS011;10539;53.686;9.158;2023-03-02T13:30:58;28.30;;;7.93;;
20758;SDS011;10539;53.686;9.158;2023-03-02T13:33:43;23.30;;;7.97;;
20758;SDS011;10539;53.686;9.158;2023-03-02T13:36:17;27.10;;;8.40;;
20758;SDS011;10539;53.686;9.158;2023-03-02T13:38:46;31.50;;;9.33;;
20758;SDS011;10539;53.686;9.158;2023-03-02T13:41:21;23.13;;;7.67;;
20758;SDS011;10539;53.686;9.158;2023-03-02T13:43:47;25.23;;;7.83;;
20758;SDS011;10539;53.686;9.158;2023-03-02T13:48:58;30.83;;;8.97;;
20758;SDS011;10539;53.686;9.158;2023-03-02T13:51:30;31.90;;;9.70;;
20758;SDS011;10539;53.686;9.158;2023-03-02T13:54:01;31.47;;;9.80;;
20758;SDS011;10539;53.686;9.158;2023-03-02T13:56:33;29.43;;;8.77;;
20758;SDS011;10539;53.686;9.158;2023-03-02T13:59:08;26.20;;;9.07;;
20758;SDS011;10539;53.686;9.158;2023-03-02T14:01:36;30.30;;;9.80;;
20758;SDS011;10539;53.686;9.158;2023-03-02T14:04:02;28.27;;;8.87;;
20758;SDS011;10539;53.686;9.158;2023-03-02T14:06:28;23.60;;;8.60;;
20758;SDS011;10539;53.686;9.158;2023-03-02T14:08:55;25.97;;;9.57;;
20758;SDS011;10539;53.686;9.158;2023-03-02T14:11:21;29.93;;;9.30;;
20758;SDS011;10539;53.686;9.158;2023-03-02T14:13:51;26.27;;;8.83;;
20758;SDS011;10539;53.686;9.158;2023-03-02T14:16:19;23.57;;;7.63;;
20758;SDS011;10539;53.686;9.158;2023-03-02T14:18:46;23.73;;;8.17;;
20758;SDS011;10539;53.686;9.158;2023-03-02T14:21:14;20.83;;;7.17;;
20758;SDS011;10539;53.686;9.158;2023-03-02T14:23:43;14.07;;;5.90;;
20758;SDS011;10539;53.686;9.158;2023-03-02T14:28:44;19.40;;;7.73;;
20758;SDS011;10539;53.686;9.158;2023-03-02T14:31:10;18.17;;;6.67;;
20758;SDS011;10539;53.686;9.158;2023-03-02T14:33:35;20.10;;;7.87;;
20758;SDS011;10539;53.686;9.158;2023-03-02T14:36:02;18.77;;;6.63;;
20758;SDS011;10539;53.686;9.158;2023-03-02T14:38:29;17.17;;;6.77;;
20758;SDS011;10539;53.686;9.158;2023-03-02T14:40:55;20.63;;;7.73;;
20758;SDS011;10539;53.686;9.158;2023-03-02T14:43:21;17.93;;;6.53;;
20758;SDS011;10539;53.686;9.158;2023-03-02T14:45:49;22.10;;;7.80;;
20758;SDS011;10539;53.686;9.158;2023-03-02T14:48:16;18.70;;;7.23;;
20758;SDS011;10539;53.686;9.158;2023-03-02T14:50:43;24.97;;;7.63;;
20758;SDS011;10539;53.686;9.158;2023-03-02T14:53:14;19.57;;;8.10;;
20758;SDS011;10539;53.686;9.158;2023-03-02T14:55:52;18.10;;;7.60;;
20758;SDS011;10539;53.686;9.158;2023-03-02T14:58:19;19.97;;;7.77;;
20758;SDS011;10539;53.686;9.158;2023-03-02T15:00:52;21.13;;;7.23;;
20758;SDS011;10539;53.686;9.158;2023-03-02T15:03:18;19.90;;;7.33;;
20758;SDS011;10539;53.686;9.158;2023-03-02T15:05:46;19.43;;;6.63;;
20758;SDS011;10539;53.686;9.158;2023-03-02T15:08:13;20.30;;;7.40;;
20758;SDS011;10539;53.686;9.158;2023-03-02T15:10:39;16.67;;;6.20;;
20758;SDS011;10539;53.686;9.158;2023-03-02T15:13:07;17.23;;;7.60;;
20758;SDS011;10539;53.686;9.158;2023-03-02T15:15:34;24.23;;;8.37;;
20758;SDS011;10539;53.686;9.158;2023-03-02T15:17:59;18.00;;;6.67;;
20758;SDS011;10539;53.686;9.158;2023-03-02T15:20:25;19.07;;;6.63;;
20758;SDS011;10539;53.686;9.158;2023-03-02T15:22:53;17.63;;;7.00;;
20758;SDS011;10539;53.686;9.158;2023-03-02T15:25:19;22.77;;;8.37;;
20758;SDS011;10539;53.686;9.158;2023-03-02T15:27:45;20.87;;;7.27;;
20758;SDS011;10539;53.686;9.158;2023-03-02T15:30:11;21.03;;;7.50;;
20758;SDS011;10539;53.686;9.158;2023-03-02T15:32:37;16.57;;;7.47;;
20758;SDS011;10539;53.686;9.158;2023-03-02T15:35:03;19.30;;;7.37;;
20758;SDS011;10539;53.686;9.158;2023-03-02T15:37:29;20.77;;;8.50;;
20758;SDS011;10539;53.686;9.158;2023-03-02T15:39:55;24.50;;;8.63;;